createdAt,value
2024-02-02T00:00:49.546Z,9.77
2024-02-02T00:03:16.335Z,9.30
2024-02-02T00:05:43.209Z,9.95
2024-02-02T00:08:09.641Z,9.68
2024-02-02T00:10:36.369Z,9.23
2024-02-02T00:13:03.243Z,9.15
2024-02-02T00:15:29.806Z,9.35
2024-02-02T00:17:56.475Z,10.50
2024-02-02T00:20:23.162Z,8.43
2024-02-02T00:22:49.657Z,8.35
2024-02-02T00:25:16.304Z,9.27
2024-02-02T00:27:42.898Z,8.98
2024-02-02T00:30:09.819Z,8.52
2024-02-02T00:32:36.341Z,9.73
2024-02-02T00:35:02.925Z,8.82
2024-02-02T00:37:29.488Z,8.80
2024-02-02T00:39:56.062Z,8.98
2024-02-02T00:42:22.524Z,10.02
2024-02-02T00:44:49.061Z,9.68
2024-02-02T00:47:15.617Z,8.55
2024-02-02T00:49:42.326Z,8.80
2024-02-02T00:52:08.804Z,10.18
2024-02-02T00:54:35.344Z,11.02
2024-02-02T00:57:01.937Z,9.15
2024-02-02T00:59:28.960Z,9.63
2024-02-02T01:01:55.421Z,8.98
2024-02-02T01:04:21.855Z,9.13
2024-02-02T01:06:48.620Z,9.25
2024-02-02T01:09:15.164Z,10.48
2024-02-02T01:11:41.694Z,9.48
2024-02-02T01:14:08.331Z,10.25
2024-02-02T01:16:34.812Z,9.32
2024-02-02T01:19:01.420Z,8.35
2024-02-02T01:21:29.362Z,8.85
2024-02-02T01:23:56.335Z,9.13
2024-02-02T01:26:22.817Z,8.73
2024-02-02T01:28:49.727Z,9.88
2024-02-02T01:31:16.208Z,8.13
2024-02-02T01:33:42.826Z,8.52
2024-02-02T01:36:09.371Z,9.60
2024-02-02T01:38:35.809Z,9.13
2024-02-02T01:41:02.249Z,8.23
2024-02-02T01:43:29.396Z,8.68
2024-02-02T01:45:55.894Z,8.73
2024-02-02T01:48:22.952Z,9.05
2024-02-02T01:50:49.551Z,7.75
2024-02-02T01:53:16.688Z,8.10
2024-02-02T01:55:43.297Z,8.52
2024-02-02T01:58:10.541Z,8.43
2024-02-02T02:00:37.820Z,8.55
2024-02-02T02:03:04.720Z,10.02
2024-02-02T02:05:31.295Z,9.13
2024-02-02T02:07:57.834Z,9.23
2024-02-02T02:10:25.807Z,9.73
2024-02-02T02:12:52.483Z,10.30
2024-02-02T02:15:19.178Z,9.02
2024-02-02T02:17:45.780Z,9.05
2024-02-02T02:20:14.665Z,11.05
2024-02-02T02:22:41.141Z,10.10
2024-02-02T02:25:08.213Z,10.43
2024-02-02T02:27:34.764Z,9.65
2024-02-02T02:30:02.245Z,11.07
2024-02-02T02:32:28.961Z,10.52
2024-02-02T02:34:55.579Z,10.93
2024-02-02T02:37:22.058Z,10.30
2024-02-02T02:39:48.545Z,10.07
2024-02-02T02:42:15.112Z,9.98
2024-02-02T02:44:41.753Z,9.68
2024-02-02T02:47:08.541Z,9.35
2024-02-02T02:49:35.234Z,10.55
2024-02-02T02:52:01.799Z,9.73
2024-02-02T02:54:28.330Z,9.77
2024-02-02T02:56:54.889Z,9.73
2024-02-02T02:59:21.401Z,11.50
2024-02-02T03:01:48.396Z,10.15
2024-02-02T03:04:14.927Z,9.90
2024-02-02T03:06:41.577Z,10.50
2024-02-02T03:09:08.321Z,9.77
2024-02-02T03:11:34.929Z,8.68
2024-02-02T03:14:01.612Z,9.57
2024-02-02T03:16:28.089Z,9.82
2024-02-02T03:18:54.539Z,10.13
2024-02-02T03:21:21.127Z,11.15
2024-02-02T03:23:47.668Z,10.73
2024-02-02T03:26:14.163Z,9.02
2024-02-02T03:28:40.577Z,9.23
2024-02-02T03:31:07.342Z,9.45
2024-02-02T03:33:33.953Z,8.02
2024-02-02T03:36:01.304Z,8.98
2024-02-02T03:38:27.777Z,10.07
2024-02-02T03:40:54.294Z,9.50
2024-02-02T03:43:20.793Z,9.50
2024-02-02T03:45:47.515Z,9.32
2024-02-02T03:48:14.002Z,9.65
2024-02-02T03:50:40.488Z,11.77
2024-02-02T03:53:06.968Z,9.95
2024-02-02T03:55:33.426Z,9.32
2024-02-02T03:58:00.034Z,10.77
2024-02-02T04:00:26.602Z,9.90
2024-02-02T04:02:53.908Z,9.38
2024-02-02T04:05:20.609Z,8.90
2024-02-02T04:07:47.032Z,8.68
2024-02-02T04:10:14.715Z,9.10
2024-02-02T04:12:41.149Z,9.93
2024-02-02T04:15:08.096Z,9.57
2024-02-02T04:17:34.579Z,9.18
2024-02-02T04:20:01.096Z,7.78
2024-02-02T04:22:28.091Z,9.88
2024-02-02T04:24:54.659Z,8.65
2024-02-02T04:27:21.055Z,8.60
2024-02-02T04:29:47.584Z,8.77
2024-02-02T04:32:14.009Z,9.05
2024-02-02T04:34:40.693Z,9.43
2024-02-02T04:37:07.259Z,8.23
2024-02-02T04:39:33.812Z,9.15
2024-02-02T04:42:00.473Z,10.15
2024-02-02T04:44:27.223Z,10.75
2024-02-02T04:46:54.332Z,9.73
2024-02-02T04:49:21.095Z,9.48
2024-02-02T04:51:47.660Z,9.07
2024-02-02T04:54:14.127Z,10.35
2024-02-02T04:56:40.753Z,9.43
2024-02-02T04:59:07.197Z,9.43
2024-02-02T05:01:33.611Z,9.20
2024-02-02T05:04:00.245Z,9.50
2024-02-02T05:06:26.780Z,9.80
2024-02-02T05:08:53.361Z,11.32
2024-02-02T05:11:19.849Z,10.45
2024-02-02T05:13:46.311Z,9.93
2024-02-02T05:16:15.366Z,9.63
2024-02-02T05:18:42.234Z,9.50
2024-02-02T05:21:08.789Z,8.20
2024-02-02T05:23:37.688Z,8.63
2024-02-02T05:26:07.800Z,11.25
2024-02-02T05:28:34.769Z,8.93
2024-02-02T05:31:01.238Z,8.90
2024-02-02T05:33:27.775Z,9.43
2024-02-02T05:35:54.416Z,9.40
2024-02-02T05:38:20.902Z,10.95
2024-02-02T05:40:47.376Z,9.77
2024-02-02T05:43:13.807Z,9.57
2024-02-02T05:45:40.392Z,9.70
2024-02-02T05:48:07.617Z,9.63
2024-02-02T05:50:34.124Z,10.63
2024-02-02T05:53:00.592Z,8.82
2024-02-02T05:55:27.043Z,10.13
2024-02-02T05:57:53.474Z,10.15
2024-02-02T06:00:20.179Z,9.85
2024-02-02T06:02:47.367Z,9.20
2024-02-02T06:05:14.135Z,10.68
2024-02-02T06:07:40.697Z,8.38
2024-02-02T06:10:07.592Z,8.20
2024-02-02T06:12:37.706Z,10.98
2024-02-02T06:15:06.045Z,9.95
2024-02-02T06:17:32.525Z,9.82
2024-02-02T06:19:59.217Z,8.85
2024-02-02T06:22:25.715Z,12.93
2024-02-02T06:24:52.134Z,9.20
2024-02-02T06:27:23.399Z,9.27
2024-02-02T06:29:53.288Z,9.70
2024-02-02T06:32:23.001Z,10.32
2024-02-02T06:34:56.549Z,10.63
2024-02-02T06:37:24.502Z,9.60
2024-02-02T06:39:53.201Z,9.38
2024-02-02T06:42:20.386Z,9.20
2024-02-02T06:44:47.020Z,9.88
2024-02-02T06:47:14.769Z,9.73
2024-02-02T06:49:41.358Z,9.15
2024-02-02T06:52:07.898Z,9.52
2024-02-02T06:54:34.631Z,9.95
2024-02-02T06:57:01.597Z,10.13
2024-02-02T06:59:28.293Z,10.32
2024-02-02T07:01:54.826Z,9.57
2024-02-02T07:04:21.701Z,9.80
2024-02-02T07:06:49.323Z,9.63
2024-02-02T07:09:18.820Z,10.48
2024-02-02T07:12:04.639Z,9.77
2024-02-02T07:14:40.066Z,10.57
2024-02-02T07:17:18.738Z,9.07
2024-02-02T07:19:45.327Z,9.60
2024-02-02T07:22:35.901Z,8.70
2024-02-02T07:25:04.364Z,10.85
2024-02-02T07:27:47.637Z,9.98
2024-02-02T07:30:22.144Z,8.52
2024-02-02T07:32:50.045Z,9.95
2024-02-02T07:35:33.656Z,8.50
2024-02-02T07:38:07.666Z,11.13
2024-02-02T07:40:44.925Z,10.00
2024-02-02T07:43:11.342Z,8.60
2024-02-02T07:45:37.744Z,9.40
2024-02-02T07:48:04.581Z,9.32
2024-02-02T07:50:31.118Z,9.38
2024-02-02T07:52:57.586Z,10.00
2024-02-02T07:55:24.037Z,9.63
2024-02-02T07:57:50.449Z,8.90
2024-02-02T08:00:17.427Z,9.13
2024-02-02T08:02:43.883Z,10.05
2024-02-02T08:05:10.595Z,9.75
2024-02-02T08:07:37.042Z,10.23
2024-02-02T08:10:04.775Z,9.15
2024-02-02T08:12:31.762Z,9.25
2024-02-02T08:14:58.353Z,10.23
2024-02-02T08:17:24.851Z,9.18
2024-02-02T08:19:51.411Z,8.95
2024-02-02T08:22:17.970Z,8.48
2024-02-02T08:24:44.475Z,8.98
2024-02-02T08:27:10.906Z,8.32
2024-02-02T08:29:37.357Z,9.18
2024-02-02T08:32:06.288Z,8.38
2024-02-02T08:34:33.124Z,9.63
2024-02-02T08:37:02.837Z,8.00
2024-02-02T08:39:34.963Z,7.55
2024-02-02T08:42:08.447Z,8.40
2024-02-02T08:44:35.351Z,8.18
2024-02-02T08:47:02.329Z,9.35
2024-02-02T08:49:55.446Z,10.13
2024-02-02T08:52:36.239Z,9.68
2024-02-02T08:55:07.766Z,10.00
2024-02-02T08:57:51.601Z,9.32
2024-02-02T09:00:37.157Z,14.20
2024-02-02T09:03:30.079Z,10.73
2024-02-02T09:06:01.501Z,9.70
2024-02-02T09:08:33.970Z,9.95
2024-02-02T09:11:00.385Z,9.98
2024-02-02T09:13:36.607Z,8.23
2024-02-02T09:16:03.863Z,11.00
2024-02-02T09:18:37.289Z,11.57
2024-02-02T09:21:05.118Z,11.50
2024-02-02T09:23:36.329Z,10.27
2024-02-02T09:26:12.329Z,10.15
2024-02-02T09:28:46.262Z,10.07
2024-02-02T09:31:22.062Z,11.55
2024-02-02T09:33:51.507Z,10.27
2024-02-02T09:36:23.240Z,10.38
2024-02-02T09:39:01.358Z,10.32
2024-02-02T09:41:40.937Z,11.05
2024-02-02T09:44:28.783Z,10.02
2024-02-02T09:47:20.083Z,10.10
2024-02-02T09:49:55.005Z,9.88
2024-02-02T09:52:59.815Z,10.75
2024-02-02T09:55:41.290Z,11.02
2024-02-02T09:58:28.317Z,11.30
2024-02-02T10:01:13.306Z,11.20
2024-02-02T10:03:44.375Z,10.48
2024-02-02T10:06:26.228Z,10.38
2024-02-02T10:09:05.015Z,10.38
2024-02-02T10:11:37.127Z,12.02
2024-02-02T10:14:31.517Z,11.57
2024-02-02T10:17:07.008Z,11.57
2024-02-02T10:20:03.598Z,10.00
2024-02-02T10:22:51.549Z,12.35
2024-02-02T10:25:17.976Z,11.35
2024-02-02T10:27:59.494Z,11.77
2024-02-02T10:30:41.829Z,13.00
2024-02-02T10:33:24.919Z,12.40
2024-02-02T10:38:57.027Z,12.02
2024-02-02T10:41:36.016Z,10.70
2024-02-02T10:44:32.798Z,11.63
2024-02-02T10:47:37.011Z,12.00
2024-02-02T10:50:22.463Z,12.27
2024-02-02T10:53:00.263Z,12.35
2024-02-02T10:55:43.369Z,11.30
2024-02-02T10:58:17.330Z,12.15
2024-02-02T11:00:55.506Z,11.35
2024-02-02T11:03:32.280Z,11.60
2024-02-02T11:06:55.708Z,11.25
2024-02-02T11:09:54.237Z,12.25
2024-02-02T11:12:42.074Z,11.45
2024-02-02T11:15:33.252Z,10.30
2024-02-02T11:18:44.941Z,12.23
2024-02-02T11:21:48.216Z,12.50
2024-02-02T11:24:20.339Z,11.13
2024-02-02T11:27:01.715Z,9.80
2024-02-02T11:29:33.973Z,10.85
2024-02-02T11:32:36.745Z,10.65
2024-02-02T11:35:28.086Z,11.20
2024-02-02T11:38:17.097Z,9.80
2024-02-02T11:40:44.927Z,11.85
2024-02-02T11:43:12.447Z,11.60
2024-02-02T11:45:43.916Z,10.38
2024-02-02T11:48:26.731Z,10.77
2024-02-02T11:50:53.749Z,11.32
2024-02-02T11:53:21.226Z,10.20
2024-02-02T11:55:52.524Z,10.25
2024-02-02T11:58:21.248Z,10.52
2024-02-02T12:01:04.090Z,10.85
2024-02-02T12:03:40.696Z,11.40
2024-02-02T12:06:16.465Z,10.45
2024-02-02T12:09:03.454Z,9.80
2024-02-02T12:11:44.569Z,9.05
2024-02-02T12:14:36.510Z,10.55
2024-02-02T12:17:03.054Z,9.43
2024-02-02T12:19:29.675Z,9.00
2024-02-02T12:21:56.344Z,11.02
2024-02-02T12:24:23.291Z,9.10
2024-02-02T12:26:50.896Z,9.32
2024-02-02T12:29:17.420Z,10.18
2024-02-02T12:31:44.037Z,8.13
2024-02-02T12:34:10.776Z,8.68
2024-02-02T12:36:37.355Z,9.40
2024-02-02T12:39:06.381Z,8.93
2024-02-02T12:41:34.117Z,9.48
2024-02-02T12:44:01.317Z,8.90
2024-02-02T12:46:31.807Z,8.68
2024-02-02T12:48:58.374Z,7.88
2024-02-02T12:51:24.979Z,8.63
2024-02-02T12:53:51.494Z,9.43
2024-02-02T12:56:18.986Z,8.65
2024-02-02T12:58:45.746Z,9.80
2024-02-02T13:01:12.588Z,8.88
2024-02-02T13:03:44.248Z,8.48
2024-02-02T13:06:12.699Z,9.52
2024-02-02T13:08:41.880Z,8.43
2024-02-02T13:11:18.970Z,9.02
2024-02-02T13:13:45.425Z,8.73
2024-02-02T13:16:28.793Z,7.85
2024-02-02T13:18:55.485Z,8.65
2024-02-02T13:21:28.584Z,7.78
2024-02-02T13:23:57.282Z,7.55
2024-02-02T13:26:37.468Z,7.70
2024-02-02T13:29:08.818Z,8.80
2024-02-02T13:31:38.539Z,8.27
2024-02-02T13:34:13.748Z,7.85
2024-02-02T13:36:44.849Z,7.13
2024-02-02T13:39:19.840Z,7.30
2024-02-02T13:41:47.430Z,8.80
2024-02-02T13:44:17.941Z,6.65
2024-02-02T13:46:48.155Z,7.50
2024-02-02T13:49:24.257Z,6.78
2024-02-02T13:51:51.939Z,6.90
2024-02-02T13:54:19.480Z,6.68
2024-02-02T13:56:46.043Z,7.80
2024-02-02T13:59:20.072Z,6.93
2024-02-02T14:01:47.160Z,7.65
2024-02-02T14:04:23.105Z,7.68
2024-02-02T14:06:49.759Z,8.23
2024-02-02T14:09:23.327Z,7.40
2024-02-02T14:11:50.796Z,8.00
2024-02-02T14:14:24.818Z,7.88
2024-02-02T14:16:51.532Z,8.35
2024-02-02T14:19:19.276Z,7.13
2024-02-02T14:21:45.882Z,8.10
2024-02-02T14:24:16.489Z,8.52
2024-02-02T14:26:50.016Z,8.25
2024-02-02T14:29:16.531Z,8.13
2024-02-02T14:31:43.245Z,8.30
2024-02-02T14:34:10.689Z,8.65
2024-02-02T14:36:40.845Z,7.68
2024-02-02T14:39:14.304Z,7.90
2024-02-02T14:41:40.841Z,9.55
2024-02-02T14:44:07.281Z,9.80
2024-02-02T14:46:34.561Z,9.10
2024-02-02T14:49:01.789Z,8.40
2024-02-02T14:51:29.224Z,7.90
2024-02-02T14:53:55.683Z,9.27
2024-02-02T14:56:22.291Z,8.55
2024-02-02T14:58:49.448Z,8.75
2024-02-02T15:01:16.262Z,7.97
2024-02-02T15:03:44.172Z,8.05
2024-02-02T15:08:41.493Z,7.82
2024-02-02T15:11:09.911Z,8.90
2024-02-02T15:13:38.058Z,7.80
2024-02-02T15:16:08.264Z,7.93
2024-02-02T15:18:34.870Z,7.82
2024-02-02T15:21:01.679Z,7.68
2024-02-02T15:23:28.150Z,8.55
2024-02-02T15:25:54.576Z,11.55
2024-02-02T15:28:21.405Z,9.02
2024-02-02T15:30:47.929Z,8.35
2024-02-02T15:33:14.436Z,8.43
2024-02-02T15:35:41.328Z,7.82
2024-02-02T15:38:09.641Z,8.52
2024-02-02T15:40:36.183Z,7.68
2024-02-02T15:43:02.904Z,8.00
2024-02-02T15:45:29.364Z,8.55
2024-02-02T15:47:55.947Z,9.38
2024-02-02T15:50:22.417Z,7.63
2024-02-02T15:52:48.827Z,7.70
2024-02-02T15:55:15.939Z,7.90
2024-02-02T15:57:42.452Z,7.40
2024-02-02T16:00:11.426Z,7.78
2024-02-02T16:02:37.879Z,7.88
2024-02-02T16:05:05.854Z,8.80
2024-02-02T16:07:32.334Z,8.70
2024-02-02T16:09:58.894Z,7.68
2024-02-02T16:12:25.394Z,9.07
2024-02-02T16:14:51.996Z,8.35
2024-02-02T16:17:21.532Z,8.10
2024-02-02T16:19:48.401Z,8.75
2024-02-02T16:22:15.084Z,8.93
2024-02-02T16:24:41.878Z,8.15
2024-02-02T16:27:08.489Z,10.70
2024-02-02T16:29:36.946Z,8.73
2024-02-02T16:32:03.575Z,8.15
2024-02-02T16:34:30.437Z,10.32
2024-02-02T16:36:57.293Z,8.40
2024-02-02T16:39:23.739Z,8.98
2024-02-02T16:41:50.164Z,8.65
2024-02-02T16:44:17.016Z,8.52
2024-02-02T16:46:44.933Z,9.35
2024-02-02T16:49:12.097Z,7.85
2024-02-02T16:51:38.730Z,8.63
2024-02-02T16:54:11.635Z,12.35
2024-02-02T16:56:38.269Z,9.23
2024-02-02T16:59:05.342Z,8.20
2024-02-02T17:01:34.171Z,8.25
2024-02-02T17:04:01.528Z,7.68
2024-02-02T17:06:29.563Z,8.10
2024-02-02T17:08:57.105Z,7.00
2024-02-02T17:11:23.527Z,7.13
2024-02-02T17:13:50.018Z,6.82
2024-02-02T17:16:20.597Z,8.05
2024-02-02T17:18:47.469Z,5.97
2024-02-02T17:21:14.048Z,7.40
2024-02-02T17:23:40.479Z,7.32
2024-02-02T17:26:14.952Z,7.25
2024-02-02T17:28:41.840Z,7.85
2024-02-02T17:31:13.113Z,6.95
2024-02-02T17:33:40.397Z,7.40
2024-02-02T17:36:11.668Z,7.47
2024-02-02T17:38:39.117Z,7.55
2024-02-02T17:41:13.412Z,8.25
2024-02-02T17:43:40.825Z,8.32
2024-02-02T17:46:07.943Z,10.45
2024-02-02T17:48:34.875Z,10.13
2024-02-02T17:51:08.291Z,8.00
2024-02-02T17:53:41.001Z,7.93
2024-02-02T17:56:08.969Z,7.30
2024-02-02T17:58:35.976Z,7.55
2024-02-02T18:01:02.683Z,6.65
2024-02-02T18:03:29.626Z,7.10
2024-02-02T18:05:56.153Z,7.45
2024-02-02T18:08:23.027Z,7.10
2024-02-02T18:10:49.681Z,7.25
2024-02-02T18:13:16.165Z,8.23
2024-02-02T18:15:44.333Z,8.15
2024-02-02T18:18:12.098Z,7.70
2024-02-02T18:20:38.655Z,7.15
2024-02-02T18:23:06.842Z,7.50
2024-02-02T18:25:33.369Z,8.30
2024-02-02T18:27:59.781Z,8.45
2024-02-02T18:30:27.076Z,7.82
2024-02-02T18:32:53.662Z,7.97
2024-02-02T18:35:20.395Z,7.53
2024-02-02T18:37:49.606Z,7.68
2024-02-02T18:40:16.821Z,8.25
2024-02-02T18:42:43.584Z,7.93
2024-02-02T18:45:10.530Z,7.72
2024-02-02T18:47:38.957Z,8.95
2024-02-02T18:50:06.156Z,8.15
2024-02-02T18:52:32.729Z,7.80
2024-02-02T18:54:59.216Z,8.85
2024-02-02T18:57:25.740Z,8.05
2024-02-02T18:59:52.163Z,8.88
2024-02-02T19:02:18.630Z,8.27
2024-02-02T19:04:45.291Z,10.38
2024-02-02T19:07:12.097Z,10.00
2024-02-02T19:09:38.699Z,8.75
2024-02-02T19:12:05.950Z,9.25
2024-02-02T19:14:32.417Z,9.27
2024-02-02T19:16:58.879Z,10.52
2024-02-02T19:19:25.417Z,8.98
2024-02-02T19:21:52.567Z,8.32
2024-02-02T19:24:19.210Z,8.73
2024-02-02T19:26:45.915Z,9.35
2024-02-02T19:29:12.491Z,9.55
2024-02-02T19:31:40.438Z,9.90
2024-02-02T19:34:07.786Z,9.43
2024-02-02T19:36:34.686Z,9.25
2024-02-02T19:39:02.081Z,9.10
2024-02-02T19:41:30.695Z,9.82
2024-02-02T19:43:58.005Z,9.98
2024-02-02T19:46:34.674Z,9.43
2024-02-02T19:49:03.392Z,8.98
2024-02-02T19:51:30.856Z,9.32
2024-02-02T19:53:57.523Z,9.48
2024-02-02T19:56:24.482Z,10.07
2024-02-02T19:58:51.222Z,10.35
2024-02-02T20:01:19.584Z,9.80
2024-02-02T20:03:47.422Z,9.88
2024-02-02T20:06:15.608Z,10.35
2024-02-02T20:08:43.328Z,9.88
2024-02-02T20:11:17.762Z,10.30
2024-02-02T20:13:45.366Z,11.57
2024-02-02T20:16:20.325Z,10.60
2024-02-02T20:18:47.702Z,10.00
2024-02-02T20:21:18.464Z,9.60
2024-02-02T20:23:50.173Z,11.07
2024-02-02T20:26:18.985Z,9.60
2024-02-02T20:28:46.839Z,9.70
2024-02-02T20:31:13.502Z,9.30
2024-02-02T20:33:40.129Z,9.55
2024-02-02T20:36:07.623Z,10.00
2024-02-02T20:38:34.310Z,9.70
2024-02-02T20:41:05.311Z,9.75
2024-02-02T20:43:31.759Z,10.10
2024-02-02T20:45:58.252Z,10.32
2024-02-02T20:48:25.307Z,10.68
2024-02-02T20:50:52.428Z,10.23
2024-02-02T20:53:19.511Z,11.20
2024-02-02T20:55:46.077Z,10.10
2024-02-02T20:58:12.546Z,10.13
2024-02-02T21:00:42.070Z,10.52
2024-02-02T21:03:08.924Z,9.32
2024-02-02T21:05:36.283Z,9.80
2024-02-02T21:08:02.932Z,8.38
2024-02-02T21:10:29.508Z,10.65
2024-02-02T21:12:56.053Z,9.80
2024-02-02T21:15:22.581Z,9.35
2024-02-02T21:17:56.067Z,10.02
2024-02-02T21:20:24.236Z,9.10
2024-02-02T21:22:50.718Z,9.68
2024-02-02T21:25:17.166Z,9.85
2024-02-02T21:27:44.383Z,10.32
2024-02-02T21:30:11.920Z,10.57
2024-02-02T21:32:38.416Z,9.18
2024-02-02T21:35:05.254Z,9.32
2024-02-02T21:37:31.774Z,9.68
2024-02-02T21:39:58.184Z,9.13
2024-02-02T21:42:24.643Z,9.05
2024-02-02T21:44:52.520Z,9.55
2024-02-02T21:47:19.025Z,10.02
2024-02-02T21:49:45.677Z,9.63
2024-02-02T21:52:12.166Z,8.82
2024-02-02T21:54:38.671Z,8.77
2024-02-02T21:57:05.480Z,9.45
2024-02-02T21:59:31.921Z,8.57
2024-02-02T22:01:58.329Z,17.20
2024-02-02T22:04:24.896Z,9.00
2024-02-02T22:06:52.718Z,8.88
2024-02-02T22:09:19.257Z,8.77
2024-02-02T22:11:45.690Z,8.23
2024-02-02T22:14:12.159Z,8.98
2024-02-02T22:16:38.770Z,8.85
2024-02-02T22:19:05.310Z,8.80
2024-02-02T22:21:31.970Z,8.85
2024-02-02T22:23:58.471Z,8.93
2024-02-02T22:26:25.154Z,8.88
2024-02-02T22:28:51.650Z,9.60
2024-02-02T22:31:21.955Z,8.73
2024-02-02T22:33:50.239Z,8.85
2024-02-02T22:36:26.058Z,8.70
2024-02-02T22:38:56.302Z,9.05
2024-02-02T22:41:33.239Z,9.15
2024-02-02T22:44:02.154Z,9.77
2024-02-02T22:46:32.457Z,9.15
2024-02-02T22:48:59.562Z,9.50
2024-02-02T22:51:26.547Z,9.93
2024-02-02T22:53:53.269Z,8.80
2024-02-02T22:56:19.823Z,9.75
2024-02-02T22:58:46.268Z,9.43
2024-02-02T23:01:12.949Z,9.75
2024-02-02T23:03:39.594Z,8.27
2024-02-02T23:06:07.161Z,10.23
2024-02-02T23:08:33.723Z,9.80
2024-02-02T23:11:00.269Z,8.98
2024-02-02T23:13:26.854Z,9.48
2024-02-02T23:15:54.742Z,8.85
2024-02-02T23:18:22.724Z,9.82
2024-02-02T23:20:49.516Z,11.05
2024-02-02T23:23:17.261Z,9.32
2024-02-02T23:25:44.402Z,9.73
2024-02-02T23:28:11.418Z,10.43
2024-02-02T23:30:38.293Z,9.60
2024-02-02T23:33:04.997Z,9.77
2024-02-02T23:35:31.470Z,10.43
2024-02-02T23:37:57.951Z,10.00
2024-02-02T23:40:24.354Z,11.13
2024-02-02T23:42:50.954Z,11.13
2024-02-02T23:45:17.518Z,9.65
2024-02-02T23:47:44.150Z,10.77
2024-02-02T23:50:11.060Z,10.35
2024-02-02T23:52:37.722Z,11.45
2024-02-02T23:55:04.633Z,11.13
2024-02-02T23:57:32.086Z,10.52
2024-02-02T23:59:58.728Z,11.35
